Impacts TAF Board
For situational awareness. Not to be used for flight planning purposes.
IDs:

KTPA - Tampa Intl Arpt, FL, US

Issued at 2339 UTC 18 Feb 2019
Updated at 0214 UTC 19 Feb 2019
Potential Impact None Slight Moderate High
Time0153Z 19/03Z 19/04Z 19/05Z 19/06Z 19/07Z 19/08Z 19/09Z 19/10Z 19/11Z 19/12Z 19/13Z 19/14Z 19/15Z>>
Type OBS PRVL PRVL PRVL PRVL PRVL PRVL PRVL PRVL
  [TEMP]  
PRVL
  [TEMP]  
PRVL
  [TEMP]  
PRVL
  [TEMP]  
PRVL PRVL
VIS 9 >6 >6 >6 >6 >6 >6 >6 >6
  [4]  
>6
  [4]  
>6
  [4]  
>6
  [4]  
>6 >6
CIG -- -- -- -- -- -- -- 8 8
  [3]  
8
  [3]  
8
  [3]  
8
  [3]  
8 15
Cover CLR FEW FEW FEW FEW FEW FEW BKN BKN
  [BKN]  
BKN
  [BKN]  
BKN
  [BKN]  
BKN
  [BKN]  
BKN BKN
FltCat VFR VFR VFR VFR VFR VFR VFR IFR IFR
  [LIFR]  
IFR
  [LIFR]  
IFR
  [LIFR]  
IFR
  [LIFR]  
IFR MVFR
WX -- -- -- -- -- -- -- -- --
  [BR]  
--
  [BR]  
--
  [BR]  
--
  [BR]  
-- --
WDir 170 VRB VRB VRB VRB VRB VRB 50 50
[50]
50
[50]
50
[50]
50
[50]
50 80
WSpd 4 4 4 4 4 4 4 5 5
  [5]  
5
  [5]  
5
  [5]  
5
  [5]  
5 7
WGst -- -- -- -- -- -- -- -- --
  [--]  
--
  [--]  
--
  [--]  
--
  [--]  
-- --
Raw TAF
KTPA 182339Z 1900/2006 VRB04KT P6SM FEW040
  FM190900 05005KT P6SM SCT003 BKN008
  TEMPO 1910/1914 4SM BR BKN003
  FM191500 08007KT P6SM SCT008 BKN015
  FM191700 12007KT P6SM SCT015 BKN035
  FM192000 13007KT P6SM BKN040
  FM200000 10005KT P6SM SCT040


Raw METAR
KTPA 190153Z 17004KT 9SM CLR 24/21 A3015 RMK AO2 SLP209 T02390211
KTPA 190053Z 00000KT 10SM CLR 24/21 A3013 RMK AO2 SLP202 T02390211
KTPA 182353Z 20003KT 9SM CLR 24/21 A3012 RMK AO2 SLP199 T02440211 10278 20239 53012

METAR Board
Radar Display
Forecast Discussion
For situational awareness. Not to be used for flight planning purposes.